createdAt,value
2023-02-14T00:00:27.380Z,17.27
2023-02-14T00:02:53.908Z,18.10
2023-02-14T00:05:20.446Z,19.90
2023-02-14T00:07:46.952Z,21.02
2023-02-14T00:10:13.351Z,20.92
2023-02-14T00:12:39.732Z,22.95
2023-02-14T00:15:25.000Z,22.73
2023-02-14T00:17:54.588Z,23.15
2023-02-14T00:20:22.310Z,22.88
2023-02-14T00:22:48.722Z,23.45
2023-02-14T00:25:15.366Z,23.35
2023-02-14T00:27:42.142Z,24.20
2023-02-14T00:30:09.374Z,23.35
2023-02-14T00:32:38.152Z,20.75
2023-02-14T00:35:04.782Z,22.08
2023-02-14T00:37:31.156Z,26.30
2023-02-14T00:39:57.570Z,25.40
2023-02-14T00:42:23.945Z,40.65
2023-02-14T00:44:50.397Z,51.15
2023-02-14T00:47:16.783Z,89.38
2023-02-14T00:49:43.228Z,48.75
2023-02-14T00:52:09.628Z,75.82
2023-02-14T00:54:36.044Z,32.00
2023-02-14T00:57:02.485Z,22.15
2023-02-14T00:59:28.881Z,21.25
2023-02-14T01:01:55.262Z,22.48
2023-02-14T01:04:21.654Z,21.08
2023-02-14T01:06:48.034Z,21.90
2023-02-14T01:09:14.441Z,21.05
2023-02-14T01:11:40.897Z,22.20
2023-02-14T01:14:07.594Z,21.98
2023-02-14T01:16:34.079Z,21.60
2023-02-14T01:19:01.186Z,23.63
2023-02-14T01:21:30.392Z,23.70
2023-02-14T01:23:58.952Z,22.77
2023-02-14T01:26:25.733Z,21.48
2023-02-14T01:28:52.213Z,17.75
2023-02-14T01:31:30.019Z,19.08
2023-02-14T01:33:57.152Z,25.40
2023-02-14T01:36:46.065Z,18.60
2023-02-14T01:39:14.016Z,21.65
2023-02-14T01:41:42.603Z,26.00
2023-02-14T01:44:15.089Z,21.00
2023-02-14T01:49:11.339Z,26.60
2023-02-14T01:51:43.309Z,34.85
2023-02-14T01:54:10.159Z,27.30
2023-02-14T01:56:41.221Z,19.58
2023-02-14T01:59:10.649Z,16.27
2023-02-14T02:01:37.154Z,18.90
2023-02-14T02:04:10.018Z,19.63
2023-02-14T02:06:39.737Z,20.02
2023-02-14T02:09:12.228Z,20.85
2023-02-14T02:14:05.134Z,24.45
2023-02-14T02:16:40.441Z,26.42
2023-02-14T02:19:21.919Z,24.42
2023-02-14T02:22:09.297Z,26.27
2023-02-14T02:24:40.825Z,25.42
2023-02-14T02:27:26.225Z,27.97
2023-02-14T02:30:19.245Z,28.02
2023-02-14T02:36:34.310Z,29.95
2023-02-14T02:39:10.168Z,29.17
2023-02-14T02:42:15.465Z,25.90
2023-02-14T02:44:57.518Z,23.42
2023-02-14T02:47:32.204Z,34.42
2023-02-14T02:50:37.700Z,38.55
2023-02-14T02:53:18.755Z,33.40
2023-02-14T02:56:14.399Z,26.55
2023-02-14T02:58:52.020Z,31.30
2023-02-14T03:01:24.078Z,24.30
2023-02-14T03:04:15.179Z,27.48
2023-02-14T03:06:41.563Z,40.08
2023-02-14T03:09:21.138Z,22.88
2023-02-14T03:12:29.513Z,31.45
2023-02-14T03:15:07.086Z,25.80
2023-02-14T03:18:21.431Z,41.47
2023-02-14T03:21:16.756Z,30.85
2023-02-14T03:23:58.123Z,28.50
2023-02-14T03:26:43.118Z,31.98
2023-02-14T03:29:21.463Z,32.05
2023-02-14T03:31:58.032Z,29.42
2023-02-14T03:34:29.984Z,38.78
2023-02-14T03:37:05.811Z,36.05
2023-02-14T03:39:43.954Z,44.40
2023-02-14T03:42:17.411Z,28.52
2023-02-14T03:44:44.280Z,36.25
2023-02-14T03:47:19.379Z,34.35
2023-02-14T03:49:53.710Z,30.80
2023-02-14T03:52:21.473Z,30.40
2023-02-14T03:54:49.477Z,29.17
2023-02-14T03:57:20.983Z,25.38
2023-02-14T03:59:47.924Z,26.50
2023-02-14T04:02:18.114Z,26.92
2023-02-14T04:04:47.693Z,28.40
2023-02-14T04:07:17.812Z,27.27
2023-02-14T04:09:44.549Z,26.13
2023-02-14T04:12:11.512Z,30.70
2023-02-14T04:14:38.510Z,26.73
2023-02-14T04:17:24.085Z,32.05
2023-02-14T04:19:50.577Z,40.35
2023-02-14T04:22:16.944Z,30.27
2023-02-14T04:24:43.324Z,39.40
2023-02-14T04:27:12.668Z,32.08
2023-02-14T04:29:41.368Z,25.85
2023-02-14T04:32:10.608Z,30.85
2023-02-14T04:34:37.503Z,24.08
2023-02-14T04:37:04.674Z,30.17
2023-02-14T04:39:31.175Z,25.48
2023-02-14T04:41:57.975Z,25.48
2023-02-14T04:44:24.526Z,23.77
2023-02-14T04:46:51.118Z,23.83
2023-02-14T04:49:17.881Z,24.65
2023-02-14T04:51:44.395Z,24.98
2023-02-14T04:54:11.317Z,26.67
2023-02-14T04:56:37.699Z,27.73
2023-02-14T04:59:04.205Z,30.85
2023-02-14T05:01:30.591Z,28.05
2023-02-14T05:03:56.980Z,31.65
2023-02-14T05:06:23.584Z,29.88
2023-02-14T05:08:49.992Z,27.08
2023-02-14T05:11:16.404Z,27.48
2023-02-14T05:13:42.792Z,29.33
2023-02-14T05:16:09.268Z,27.48
2023-02-14T05:18:35.722Z,24.23
2023-02-14T05:21:02.441Z,24.80
2023-02-14T05:23:28.966Z,23.60
2023-02-14T05:25:55.379Z,26.30
2023-02-14T05:28:21.831Z,23.17
2023-02-14T05:30:50.282Z,25.27
2023-02-14T05:33:16.708Z,23.88
2023-02-14T05:35:43.097Z,22.30
2023-02-14T05:38:09.663Z,25.77
2023-02-14T05:40:36.080Z,25.75
2023-02-14T05:43:02.467Z,27.13
2023-02-14T05:45:28.904Z,27.17
2023-02-14T05:47:55.324Z,23.33
2023-02-14T05:50:21.790Z,28.85
2023-02-14T05:52:48.188Z,30.52
2023-02-14T05:55:14.674Z,37.28
2023-02-14T05:57:41.322Z,26.08
2023-02-14T06:00:08.825Z,25.42
2023-02-14T06:02:35.315Z,27.33
2023-02-14T06:05:01.943Z,24.80
2023-02-14T06:07:28.363Z,25.35
2023-02-14T06:09:54.736Z,22.42
2023-02-14T06:12:21.255Z,24.83
2023-02-14T06:14:47.768Z,19.80
2023-02-14T06:17:14.356Z,20.42
2023-02-14T06:19:40.769Z,17.77
2023-02-14T06:22:07.173Z,18.08
2023-02-14T06:24:33.617Z,18.38
2023-02-14T06:27:00.602Z,18.95
2023-02-14T06:29:27.135Z,19.98
2023-02-14T06:31:53.676Z,19.50
2023-02-14T06:34:20.127Z,22.13
2023-02-14T06:36:46.611Z,19.60
2023-02-14T06:39:13.023Z,19.63
2023-02-14T06:41:39.392Z,17.77
2023-02-14T06:44:06.014Z,16.75
2023-02-14T06:46:32.462Z,13.85
2023-02-14T06:48:58.908Z,16.70
2023-02-14T06:51:25.316Z,12.75
2023-02-14T06:53:51.679Z,17.38
2023-02-14T06:56:18.098Z,17.95
2023-02-14T06:58:44.521Z,26.08
2023-02-14T07:01:13.643Z,29.25
2023-02-14T07:03:40.047Z,28.95
2023-02-14T07:06:06.448Z,25.00
2023-02-14T07:08:32.834Z,29.60
2023-02-14T07:10:59.842Z,28.33
2023-02-14T07:13:26.501Z,28.42
2023-02-14T07:15:52.997Z,28.58
2023-02-14T07:18:19.425Z,35.65
2023-02-14T07:20:45.879Z,26.27
2023-02-14T07:23:12.392Z,30.30
2023-02-14T07:25:39.031Z,25.90
2023-02-14T07:28:05.531Z,18.10
2023-02-14T07:30:31.936Z,23.25
2023-02-14T07:32:58.394Z,24.00
2023-02-14T07:35:25.224Z,23.52
2023-02-14T07:37:51.662Z,18.92
2023-02-14T07:40:18.530Z,19.50
2023-02-14T07:42:44.918Z,17.90
2023-02-14T07:45:21.118Z,19.58
2023-02-14T07:47:49.953Z,17.45
2023-02-14T07:50:16.683Z,15.73
2023-02-14T07:52:44.295Z,21.52
2023-02-14T07:55:10.740Z,23.15
2023-02-14T07:57:37.125Z,32.45
2023-02-14T08:00:05.442Z,30.98
2023-02-14T08:02:31.852Z,34.22
2023-02-14T08:04:58.336Z,35.08
2023-02-14T08:07:24.802Z,32.03
2023-02-14T08:09:51.197Z,33.33
2023-02-14T08:12:36.293Z,35.42
2023-02-14T08:15:21.389Z,35.33
2023-02-14T08:17:48.735Z,30.75
2023-02-14T08:20:15.497Z,34.13
2023-02-14T08:22:42.007Z,33.78
2023-02-14T08:25:08.463Z,38.88
2023-02-14T08:27:34.878Z,35.53
2023-02-14T08:30:01.358Z,35.97
2023-02-14T08:32:30.396Z,33.65
2023-02-14T08:34:56.850Z,30.27
2023-02-14T08:37:23.289Z,29.48
2023-02-14T08:39:50.061Z,27.10
2023-02-14T08:42:16.902Z,25.13
2023-02-14T08:44:43.331Z,21.40
2023-02-14T08:47:09.810Z,22.45
2023-02-14T08:49:36.206Z,22.58
2023-02-14T08:52:02.661Z,23.35
2023-02-14T08:54:29.066Z,24.05
2023-02-14T08:56:55.455Z,27.75
2023-02-14T08:59:21.878Z,24.25
2023-02-14T09:01:48.298Z,26.75
2023-02-14T09:04:14.900Z,25.75
2023-02-14T09:06:41.403Z,28.52
2023-02-14T09:09:07.814Z,23.85
2023-02-14T09:11:34.820Z,25.48
2023-02-14T09:14:01.185Z,27.65
2023-02-14T09:16:30.476Z,27.35
2023-02-14T09:18:57.007Z,28.58
2023-02-14T09:21:28.205Z,27.88
2023-02-14T09:23:55.089Z,28.98
2023-02-14T09:26:21.794Z,27.88
2023-02-14T09:28:48.484Z,29.65
2023-02-14T09:31:17.732Z,25.23
2023-02-14T09:33:45.402Z,28.55
2023-02-14T09:36:12.038Z,27.50
2023-02-14T09:38:38.493Z,23.58
2023-02-14T09:41:07.256Z,21.17
2023-02-14T09:43:39.367Z,22.48
2023-02-14T09:46:37.871Z,22.83
2023-02-14T09:49:04.361Z,25.67
2023-02-14T09:51:31.649Z,21.10
2023-02-14T09:54:06.118Z,18.42
2023-02-14T09:56:51.378Z,18.27
2023-02-14T09:59:24.798Z,19.05
2023-02-14T10:01:58.157Z,17.85
2023-02-14T10:04:33.820Z,19.95
2023-02-14T10:07:16.736Z,20.80
2023-02-14T10:09:54.258Z,22.83
2023-02-14T10:12:31.719Z,23.48
2023-02-14T10:15:01.036Z,20.58
2023-02-14T10:17:52.436Z,24.40
2023-02-14T10:20:30.236Z,26.13
2023-02-14T10:23:04.411Z,24.23
2023-02-14T10:25:42.889Z,24.75
2023-02-14T10:28:12.343Z,27.30
2023-02-14T10:30:40.264Z,22.75
2023-02-14T10:33:16.870Z,24.88
2023-02-14T10:36:03.654Z,25.73
2023-02-14T10:38:41.813Z,21.73
2023-02-14T10:41:33.468Z,21.27
2023-02-14T10:44:13.479Z,21.65
2023-02-14T10:47:04.130Z,22.80
2023-02-14T10:49:49.140Z,22.10
2023-02-14T10:52:21.925Z,19.23
2023-02-14T10:55:12.464Z,20.70
2023-02-14T10:57:50.056Z,22.87
2023-02-14T11:00:22.715Z,23.27
2023-02-14T11:02:52.690Z,20.83
2023-02-14T11:05:28.945Z,21.77
2023-02-14T11:07:56.440Z,20.27
2023-02-14T11:10:26.487Z,18.05
2023-02-14T11:12:53.268Z,19.75
2023-02-14T11:15:23.806Z,21.35
2023-02-14T11:17:50.348Z,18.58
2023-02-14T11:20:26.497Z,18.20
2023-02-14T11:22:52.965Z,17.58
2023-02-14T11:25:22.416Z,17.38
2023-02-14T11:27:52.115Z,18.63
2023-02-14T11:30:35.351Z,15.60
2023-02-14T11:33:03.022Z,20.20
2023-02-14T11:35:34.460Z,16.73
2023-02-14T11:38:03.496Z,18.30
2023-02-14T11:40:33.360Z,20.10
2023-02-14T11:43:14.543Z,17.15
2023-02-14T11:45:43.254Z,17.38
2023-02-14T11:48:42.233Z,20.40
2023-02-14T11:51:14.022Z,15.75
2023-02-14T11:54:00.732Z,16.15
2023-02-14T11:56:44.179Z,16.35
2023-02-14T11:59:11.815Z,17.92
2023-02-14T12:01:41.284Z,14.73
2023-02-14T12:04:16.500Z,16.33
2023-02-14T12:06:44.387Z,16.60
2023-02-14T12:09:12.094Z,17.90
2023-02-14T12:11:38.676Z,14.57
2023-02-14T12:14:05.804Z,14.98
2023-02-14T12:16:43.980Z,13.98
2023-02-14T12:19:17.479Z,16.83
2023-02-14T12:21:49.987Z,16.33
2023-02-14T12:27:17.334Z,13.73
2023-02-14T12:29:48.724Z,13.75
2023-02-14T12:32:27.416Z,17.25
2023-02-14T12:35:02.454Z,16.58
2023-02-14T12:37:48.777Z,16.77
2023-02-14T12:40:49.532Z,15.52
2023-02-14T12:43:30.893Z,12.60
2023-02-14T12:46:19.181Z,14.40
2023-02-14T12:49:01.627Z,16.23
2023-02-14T12:51:35.075Z,12.02
2023-02-14T12:54:16.625Z,11.90
2023-02-14T12:57:12.133Z,10.60
2023-02-14T12:59:50.125Z,15.85
2023-02-14T13:02:37.923Z,13.27
2023-02-14T13:05:23.066Z,14.18
2023-02-14T13:07:55.554Z,10.73
2023-02-14T13:10:31.852Z,9.88
2023-02-14T13:13:19.903Z,8.77
2023-02-14T13:16:07.432Z,8.65
2023-02-14T13:18:49.268Z,14.63
2023-02-14T13:21:18.972Z,13.05
2023-02-14T13:23:47.336Z,13.27
2023-02-14T13:26:23.004Z,11.88
2023-02-14T13:28:57.045Z,12.25
2023-02-14T13:31:23.562Z,11.82
2023-02-14T13:33:59.995Z,11.18
2023-02-14T13:36:26.779Z,9.80
2023-02-14T13:39:08.625Z,8.75
2023-02-14T13:41:35.976Z,10.07
2023-02-14T13:44:05.719Z,10.25
2023-02-14T13:46:32.040Z,9.38
2023-02-14T13:49:23.145Z,10.10
2023-02-14T13:51:55.181Z,12.02
2023-02-14T13:54:33.876Z,9.55
2023-02-14T13:57:02.333Z,10.88
2023-02-14T13:59:35.117Z,10.13
2023-02-14T14:02:43.247Z,8.05
2023-02-14T14:05:35.370Z,8.63
2023-02-14T14:08:30.663Z,9.07
2023-02-14T14:11:02.188Z,8.65
2023-02-14T14:13:50.348Z,6.97
2023-02-14T14:16:27.294Z,7.43
2023-02-14T14:18:59.702Z,7.53
2023-02-14T14:24:23.760Z,10.27
2023-02-14T14:27:16.469Z,8.80
2023-02-14T14:29:54.417Z,6.05
2023-02-14T14:32:28.020Z,6.68
2023-02-14T14:34:59.483Z,6.05
2023-02-14T14:37:34.008Z,7.57
2023-02-14T14:40:06.425Z,5.65
2023-02-14T14:45:03.943Z,7.65
2023-02-14T14:47:40.742Z,6.32
2023-02-14T14:50:10.091Z,5.72
2023-02-14T14:52:39.025Z,5.50
2023-02-14T14:55:07.766Z,7.28
2023-02-14T14:57:36.236Z,6.88
2023-02-14T15:00:22.645Z,6.45
2023-02-14T15:03:17.415Z,7.22
2023-02-14T15:05:47.315Z,7.55
2023-02-14T15:08:14.604Z,10.05
2023-02-14T15:10:41.345Z,9.40
2023-02-14T15:13:30.081Z,8.13
2023-02-14T15:15:56.912Z,10.02
2023-02-14T15:18:23.436Z,8.20
2023-02-14T15:20:50.416Z,7.22
2023-02-14T15:23:19.088Z,10.07
2023-02-14T15:25:47.203Z,12.18
2023-02-14T15:28:27.041Z,12.25
2023-02-14T15:31:05.036Z,10.20
2023-02-14T15:33:32.464Z,10.75
2023-02-14T15:36:08.793Z,12.55
2023-02-14T15:38:36.721Z,9.25
2023-02-14T15:41:03.499Z,11.38
2023-02-14T15:43:32.593Z,11.27
2023-02-14T15:46:28.757Z,11.88
2023-02-14T15:48:56.037Z,12.95
2023-02-14T15:51:25.313Z,12.68
2023-02-14T15:53:54.152Z,13.07
2023-02-14T15:56:24.852Z,10.93
2023-02-14T15:59:06.923Z,11.75
2023-02-14T16:01:34.422Z,10.70
2023-02-14T16:04:03.172Z,12.27
2023-02-14T16:06:44.432Z,12.88
2023-02-14T16:09:26.073Z,11.90
2023-02-14T16:11:53.511Z,12.32
2023-02-14T16:14:28.891Z,12.40
2023-02-14T16:17:01.851Z,11.23
2023-02-14T16:19:41.994Z,11.10
2023-02-14T16:22:13.321Z,14.95
2023-02-14T16:24:40.409Z,12.23
2023-02-14T16:27:06.975Z,13.93
2023-02-14T16:29:35.634Z,13.45
2023-02-14T16:32:16.174Z,14.93
2023-02-14T16:34:43.552Z,14.32
2023-02-14T16:37:20.305Z,16.77
2023-02-14T16:39:47.263Z,20.67
2023-02-14T16:42:16.869Z,18.90
2023-02-14T16:44:43.765Z,14.60
2023-02-14T16:47:11.978Z,16.20
2023-02-14T16:49:38.710Z,13.13
2023-02-14T16:52:05.346Z,15.18
2023-02-14T16:54:32.413Z,14.95
2023-02-14T16:57:03.368Z,18.92
2023-02-14T16:59:30.399Z,15.45
2023-02-14T17:01:57.706Z,20.75
2023-02-14T17:04:24.374Z,17.85
2023-02-14T17:06:53.416Z,15.57
2023-02-14T17:09:24.256Z,16.08
2023-02-14T17:11:52.291Z,16.05
2023-02-14T17:14:24.808Z,19.58
2023-02-14T17:19:17.782Z,15.60
2023-02-14T17:21:44.456Z,17.77
2023-02-14T17:24:10.829Z,15.90
2023-02-14T17:26:37.993Z,16.90
2023-02-14T17:29:04.423Z,18.20
2023-02-14T17:31:30.916Z,17.30
2023-02-14T17:33:57.373Z,17.65
2023-02-14T17:36:24.101Z,19.58
2023-02-14T17:38:52.950Z,18.77
2023-02-14T17:41:22.250Z,18.30
2023-02-14T17:43:49.629Z,19.08
2023-02-14T17:46:18.438Z,16.40
2023-02-14T17:48:50.738Z,17.88
2023-02-14T17:51:20.300Z,18.95
2023-02-14T17:53:47.370Z,18.52
2023-02-14T17:56:22.222Z,17.23
2023-02-14T17:58:50.592Z,19.42
2023-02-14T18:01:22.078Z,16.88
2023-02-14T18:03:48.933Z,21.65
2023-02-14T18:06:15.474Z,22.83
2023-02-14T18:08:46.193Z,23.23
2023-02-14T18:11:13.971Z,21.08
2023-02-14T18:13:40.403Z,19.08
2023-02-14T18:16:09.885Z,16.65
2023-02-14T18:18:36.347Z,21.55
2023-02-14T18:21:04.044Z,22.65
2023-02-14T18:23:31.107Z,21.27
2023-02-14T18:25:59.646Z,19.70
2023-02-14T18:28:28.626Z,19.05
2023-02-14T18:30:57.766Z,19.67
2023-02-14T18:33:25.578Z,19.63
2023-02-14T18:35:52.137Z,19.17
2023-02-14T18:38:19.702Z,17.67
2023-02-14T18:40:46.103Z,18.23
2023-02-14T18:43:12.481Z,17.50
2023-02-14T18:45:41.004Z,18.38
2023-02-14T18:48:09.022Z,19.08
2023-02-14T18:50:35.440Z,20.73
2023-02-14T18:53:02.119Z,19.88
2023-02-14T18:55:28.887Z,18.90
2023-02-14T18:57:55.315Z,18.50
2023-02-14T19:00:22.101Z,18.33
2023-02-14T19:02:48.490Z,17.65
2023-02-14T19:05:15.007Z,19.05
2023-02-14T19:07:41.409Z,19.25
2023-02-14T19:10:08.649Z,17.35
2023-02-14T19:12:35.080Z,20.92
2023-02-14T19:15:01.661Z,18.83
2023-02-14T19:17:28.108Z,19.83
2023-02-14T19:19:55.330Z,19.73
2023-02-14T19:22:21.924Z,19.05
2023-02-14T19:24:48.423Z,17.40
2023-02-14T19:27:14.822Z,18.50
2023-02-14T19:29:41.295Z,17.67
2023-02-14T19:32:08.586Z,16.23
2023-02-14T19:34:35.009Z,16.88
2023-02-14T19:37:02.264Z,16.88
2023-02-14T19:39:30.238Z,15.50
2023-02-14T19:41:56.756Z,13.50
2023-02-14T19:44:25.660Z,15.38
2023-02-14T19:46:54.309Z,14.75
2023-02-14T19:49:21.198Z,15.15
2023-02-14T19:51:48.830Z,15.93
2023-02-14T19:54:15.727Z,14.13
2023-02-14T19:56:44.657Z,15.63
2023-02-14T19:59:13.290Z,15.48
2023-02-14T20:01:42.379Z,15.90
2023-02-14T20:04:10.853Z,17.55
2023-02-14T20:06:37.826Z,14.88
2023-02-14T20:09:05.389Z,14.18
2023-02-14T20:11:33.062Z,15.80
2023-02-14T20:14:00.339Z,16.15
2023-02-14T20:16:28.611Z,15.10
2023-02-14T20:18:55.266Z,18.08
2023-02-14T20:21:25.340Z,16.20
2023-02-14T20:23:51.785Z,15.20
2023-02-14T20:26:18.706Z,13.85
2023-02-14T20:28:45.440Z,15.35
2023-02-14T20:31:13.966Z,16.50
2023-02-14T20:33:40.597Z,27.25
2023-02-14T20:36:07.976Z,25.90
2023-02-14T20:38:34.935Z,21.33
2023-02-14T20:41:11.744Z,19.52
2023-02-14T20:43:39.064Z,15.07
2023-02-14T20:46:06.723Z,15.50
2023-02-14T20:48:33.908Z,13.48
2023-02-14T20:51:17.553Z,16.00
2023-02-14T20:53:45.067Z,13.98
2023-02-14T20:56:12.293Z,12.50
2023-02-14T20:58:39.360Z,13.55
2023-02-14T21:01:14.288Z,13.02
2023-02-14T21:03:42.147Z,15.57
2023-02-14T21:06:11.522Z,14.52
2023-02-14T21:08:38.545Z,15.50
2023-02-14T21:11:06.043Z,15.98
2023-02-14T21:13:32.960Z,15.43
2023-02-14T21:16:04.459Z,15.38
2023-02-14T21:18:32.424Z,12.57
2023-02-14T21:21:12.542Z,13.30
2023-02-14T21:23:39.077Z,15.30
2023-02-14T21:26:05.450Z,15.75
2023-02-14T21:28:31.965Z,15.32
2023-02-14T21:31:11.880Z,16.08
2023-02-14T21:33:38.434Z,15.88
2023-02-14T21:36:18.029Z,15.70
2023-02-14T21:38:44.522Z,14.02
2023-02-14T21:41:15.527Z,15.50
2023-02-14T21:43:44.209Z,16.02
2023-02-14T21:46:13.114Z,16.73
2023-02-14T21:48:58.711Z,16.20
2023-02-14T21:51:25.592Z,16.00
2023-02-14T21:53:52.429Z,21.67
2023-02-14T21:56:20.102Z,14.98
2023-02-14T21:58:48.068Z,14.80
2023-02-14T22:01:16.450Z,14.32
2023-02-14T22:03:42.884Z,17.30
2023-02-14T22:06:10.215Z,16.90
2023-02-14T22:08:36.858Z,15.07
2023-02-14T22:11:07.438Z,14.65
2023-02-14T22:13:34.972Z,13.52
2023-02-14T22:16:10.897Z,15.18
2023-02-14T22:18:37.434Z,16.15
2023-02-14T22:21:09.497Z,16.23
2023-02-14T22:23:36.232Z,18.70
2023-02-14T22:26:14.640Z,18.92
2023-02-14T22:28:42.474Z,18.05
2023-02-14T22:31:09.416Z,19.50
2023-02-14T22:33:37.791Z,16.80
2023-02-14T22:36:05.000Z,17.15
2023-02-14T22:38:31.536Z,16.85
2023-02-14T22:41:07.294Z,18.45
2023-02-14T22:43:34.460Z,16.80
2023-02-14T22:46:09.741Z,19.55
2023-02-14T22:48:36.745Z,17.75
2023-02-14T22:51:12.814Z,16.23
2023-02-14T22:53:39.342Z,18.23
2023-02-14T22:56:10.131Z,16.80
2023-02-14T22:58:36.839Z,16.50
2023-02-14T23:01:04.413Z,16.33
2023-02-14T23:03:30.956Z,16.15
2023-02-14T23:05:57.894Z,17.48
2023-02-14T23:08:24.284Z,17.50
2023-02-14T23:10:50.697Z,18.25
2023-02-14T23:13:39.900Z,19.90
2023-02-14T23:16:24.651Z,19.88
2023-02-14T23:19:09.561Z,18.38
2023-02-14T23:21:54.396Z,19.13
2023-02-14T23:24:20.908Z,18.85
2023-02-14T23:26:47.278Z,18.65
2023-02-14T23:29:13.720Z,19.27
2023-02-14T23:31:40.186Z,18.15
2023-02-14T23:34:06.631Z,19.10
2023-02-14T23:36:33.067Z,18.45
2023-02-14T23:38:59.470Z,17.80
2023-02-14T23:41:44.543Z,19.73
2023-02-14T23:44:10.926Z,18.75
2023-02-14T23:46:37.362Z,18.63
2023-02-14T23:49:03.764Z,24.05
2023-02-14T23:51:30.114Z,20.10
2023-02-14T23:53:56.487Z,20.20
2023-02-14T23:56:22.870Z,18.73
2023-02-14T23:58:49.295Z,17.65
